Time;durP1;ratioP1;P1;durP2;ratioP2;P2;SDS_P1;SDS_P2;PMS_P1;PMS_P2;Temp;Humidity;BMP_temperature;BMP_pressure;BME280_temperature;BME280_humidity;BME280_pressure;Samples;Min_cycle;Max_cycle;Signal;HPM_P1;HPM_P2
2022/01/02 00:00:04;;;;;;;9.10;4.75;;;11.40;99.90;;;;;;5029800;28;20045;-67
2022/01/02 00:02:31;;;;;;;9.90;5.03;;;11.40;99.90;;;;;;5011119;28;20060;-67
2022/01/02 00:05:03;;;;;;;9.93;5.10;;;11.40;99.90;;;;;;5010506;28;20053;-68
2022/01/02 00:07:31;;;;;;;10.98;5.10;;;11.40;99.90;;;;;;5018591;28;20517;-65
2022/01/02 00:10:03;;;;;;;9.85;5.05;;;11.40;99.90;;;;;;5030025;28;20061;-66
2022/01/02 00:12:32;;;;;;;10.50;5.72;;;11.40;99.90;;;;;;5030644;28;20163;-66
2022/01/02 00:14:58;;;;;;;9.40;5.22;;;11.40;99.90;;;;;;5028961;28;20053;-67
2022/01/02 00:17:24;;;;;;;10.40;4.90;;;11.30;99.90;;;;;;5009919;28;20155;-66
2022/01/02 00:19:57;;;;;;;9.38;5.35;;;11.40;99.90;;;;;;5013047;28;20045;-66
2022/01/02 00:22:35;;;;;;;8.57;4.78;;;11.40;99.90;;;;;;5029818;28;20037;-66
2022/01/02 00:25:06;;;;;;;10.20;5.40;;;11.50;99.90;;;;;;5029057;28;20541;-68
2022/01/02 00:27:35;;;;;;;13.13;5.55;;;11.50;99.90;;;;;;5026114;28;20410;-65
2022/01/02 00:30:03;;;;;;;11.65;5.47;;;11.40;99.90;;;;;;5028041;28;20050;-68
2022/01/02 00:32:32;;;;;;;11.55;5.80;;;11.50;99.90;;;;;;5030198;28;20187;-66
2022/01/02 00:35:00;;;;;;;8.93;5.43;;;11.40;99.90;;;;;;5029611;28;20147;-67
2022/01/02 00:37:26;;;;;;;10.80;5.72;;;11.50;99.90;;;;;;5029113;28;20064;-66
2022/01/02 00:39:51;;;;;;;9.88;5.00;;;11.40;99.90;;;;;;5029248;28;20513;-66
2022/01/02 00:42:26;;;;;;;11.57;5.35;;;11.40;99.90;;;;;;5029357;28;20092;-67
2022/01/02 00:45:05;;;;;;;10.40;5.68;;;11.40;99.90;;;;;;5030163;28;20395;-66
2022/01/02 00:47:37;;;;;;;8.48;4.53;;;11.40;99.90;;;;;;5029977;28;20052;-66
2022/01/02 00:50:07;;;;;;;10.88;5.88;;;11.40;99.90;;;;;;5021519;28;20042;-68
2022/01/02 00:52:38;;;;;;;11.68;6.15;;;11.40;99.90;;;;;;5029444;28;20099;-65
2022/01/02 00:55:08;;;;;;;7.80;5.15;;;11.30;99.90;;;;;;5029805;28;20061;-66
2022/01/02 00:57:36;;;;;;;13.02;5.97;;;11.40;99.90;;;;;;5029848;28;20513;-65
2022/01/02 01:00:16;;;;;;;12.98;5.28;;;11.40;99.90;;;;;;5003099;28;20042;-65
2022/01/02 01:02:46;;;;;;;13.20;5.88;;;11.40;99.90;;;;;;5029043;28;20055;-66
2022/01/02 01:05:19;;;;;;;11.52;5.35;;;11.40;99.90;;;;;;5011819;28;20049;-66
2022/01/02 01:07:48;;;;;;;12.45;5.65;;;11.40;99.90;;;;;;5028536;28;20379;-66
2022/01/02 01:10:14;;;;;;;13.35;6.40;;;11.40;99.90;;;;;;5028398;28;20116;-65
2022/01/02 01:12:40;;;;;;;12.30;5.95;;;11.40;99.90;;;;;;5029872;28;20559;-64
2022/01/02 01:15:08;;;;;;;11.85;5.63;;;11.40;99.90;;;;;;5028915;28;20156;-66
2022/01/02 01:17:36;;;;;;;11.77;5.18;;;11.30;99.90;;;;;;5012280;28;20049;-66
2022/01/02 01:20:05;;;;;;;12.70;6.00;;;11.40;99.90;;;;;;5021082;28;20118;-66
2022/01/02 01:22:30;;;;;;;18.05;6.35;;;11.40;99.90;;;;;;5027651;28;20509;-66
2022/01/02 01:24:57;;;;;;;14.90;6.88;;;11.40;99.90;;;;;;5028677;28;20045;-66
2022/01/02 01:27:23;;;;;;;12.25;6.60;;;11.30;99.90;;;;;;5027693;28;20058;-66
2022/01/02 01:29:49;;;;;;;12.27;5.60;;;11.40;99.90;;;;;;5028067;28;20175;-66
2022/01/02 01:32:14;;;;;;;14.73;6.40;;;11.40;99.90;;;;;;5029006;28;20050;-65
2022/01/02 01:34:40;;;;;;;13.25;6.25;;;11.40;99.90;;;;;;5028800;28;20046;-66
2022/01/02 01:37:06;;;;;;;11.57;5.60;;;11.30;99.90;;;;;;5028269;28;20499;-65
2022/01/02 01:39:32;;;;;;;15.40;6.90;;;11.30;99.90;;;;;;5027833;28;20053;-66
2022/01/02 01:42:06;;;;;;;13.95;6.13;;;11.40;99.90;;;;;;5014821;28;20045;-65
2022/01/02 01:44:51;;;;;;;14.88;6.72;;;11.40;99.90;;;;;;5027924;28;20483;-66
2022/01/02 01:47:17;;;;;;;;;;;11.30;99.90;;;;;;5015226;28;20054;-66
2022/01/02 01:49:42;;;;;;;12.32;6.35;;;11.30;99.90;;;;;;5032877;28;19921;-66
2022/01/02 01:52:08;;;;;;;13.45;6.65;;;11.40;99.90;;;;;;5017891;28;20048;-67
2022/01/02 01:54:34;;;;;;;14.27;6.55;;;11.30;99.90;;;;;;5031070;28;20067;-66
2022/01/02 01:57:02;;;;;;;16.73;7.40;;;11.30;99.90;;;;;;5032905;28;20056;-65
2022/01/02 01:59:28;;;;;;;14.80;8.20;;;11.30;99.90;;;;;;5031525;28;20401;-66
2022/01/02 02:01:54;;;;;;;17.17;7.55;;;11.30;99.90;;;;;;5029805;28;20050;-66
2022/01/02 02:04:20;;;;;;;15.95;7.50;;;11.30;99.90;;;;;;5031899;28;20049;-65
2022/01/02 02:06:46;;;;;;;14.38;7.15;;;11.30;99.90;;;;;;5031275;28;20041;-65
2022/01/02 02:09:12;;;;;;;13.20;6.97;;;11.30;99.90;;;;;;5031519;28;20490;-65
2022/01/02 02:11:39;;;;;;;20.88;7.70;;;11.30;99.90;;;;;;5011938;28;20055;-66
2022/01/02 02:14:07;;;;;;;16.27;7.57;;;11.30;99.90;;;;;;5026145;28;20053;-65
2022/01/02 02:16:34;;;;;;;16.05;7.30;;;11.30;99.90;;;;;;5030734;28;20046;-65
2022/01/02 02:19:00;;;;;;;17.60;8.23;;;11.20;99.90;;;;;;5014635;28;20527;-65
2022/01/02 02:21:28;;;;;;;13.80;7.70;;;11.20;99.90;;;;;;5031850;28;20119;-66
2022/01/02 02:23:54;;;;;;;16.00;8.32;;;11.20;99.90;;;;;;5016054;28;20091;-68
2022/01/02 02:26:19;;;;;;;13.93;8.52;;;11.20;99.90;;;;;;5030414;28;20459;-67
2022/01/02 02:28:45;;;;;;;15.20;7.60;;;11.20;99.90;;;;;;5032201;28;20045;-66
2022/01/02 02:31:11;;;;;;;13.13;7.10;;;11.20;99.90;;;;;;5031081;28;20049;-67
2022/01/02 02:33:36;;;;;;;20.98;8.60;;;11.20;99.90;;;;;;5030780;28;20045;-66
2022/01/02 02:36:02;;;;;;;11.00;6.18;;;11.20;99.90;;;;;;5030865;28;20483;-67
2022/01/02 02:38:28;;;;;;;14.15;8.60;;;11.20;99.90;;;;;;5031583;28;20124;-66
2022/01/02 02:40:54;;;;;;;16.58;8.98;;;11.20;99.90;;;;;;5030813;28;20423;-66
2022/01/02 02:51:25;;;;;;;19.08;9.07;;;11.10;99.90;;;;;;5031642;28;20056;-66
2022/01/02 02:53:52;;;;;;;23.52;9.00;;;11.10;99.90;;;;;;5045646;28;20456;-66
2022/01/02 02:56:25;;;;;;;18.33;9.35;;;11.10;99.90;;;;;;5030954;28;20049;-65
2022/01/02 02:58:56;;;;;;;15.90;7.85;;;11.10;99.90;;;;;;5031564;28;20121;-66
2022/01/02 03:01:25;;;;;;;21.73;8.75;;;11.10;99.90;;;;;;5010896;28;20050;-67
2022/01/02 03:03:51;;;;;;;25.92;9.98;;;11.10;99.90;;;;;;5018982;28;20101;-67
2022/01/02 03:06:18;;;;;;;26.13;9.90;;;11.10;99.90;;;;;;5031496;28;20091;-67
2022/01/02 03:08:45;;;;;;;17.85;9.43;;;11.00;99.90;;;;;;5013541;28;20644;-66
2022/01/02 03:11:16;;;;;;;18.00;9.45;;;11.00;99.90;;;;;;5016307;28;20049;-67
2022/01/02 03:13:44;;;;;;;20.45;9.00;;;11.00;99.90;;;;;;5010979;28;20053;-66
2022/01/02 03:16:10;;;;;;;20.98;9.57;;;11.00;99.90;;;;;;5019187;28;20049;-66
2022/01/02 03:18:36;;;;;;;17.05;9.15;;;10.90;99.90;;;;;;5029608;28;20103;-66
2022/01/02 03:21:03;;;;;;;14.75;8.55;;;11.00;99.90;;;;;;5029615;28;20445;-67
2022/01/02 03:23:29;;;;;;;16.60;9.27;;;10.90;99.90;;;;;;5029296;28;20053;-66
2022/01/02 03:25:56;;;;;;;16.30;9.77;;;10.90;99.90;;;;;;5013619;28;20495;-66
2022/01/02 03:28:22;;;;;;;16.75;10.05;;;10.90;99.90;;;;;;5029854;28;20053;-65
2022/01/02 03:30:48;;;;;;;17.35;10.88;;;10.90;99.90;;;;;;5029895;28;20317;-65
2022/01/02 03:33:13;;;;;;;19.15;10.15;;;10.90;99.90;;;;;;5031052;28;20084;-66
2022/01/02 03:35:39;;;;;;;19.08;10.50;;;10.90;99.90;;;;;;5030116;28;20049;-66
2022/01/02 03:38:06;;;;;;;19.40;10.98;;;10.90;99.90;;;;;;5029639;28;20759;-66
2022/01/02 03:40:32;;;;;;;19.55;9.32;;;10.90;99.90;;;;;;5012565;28;20167;-66
2022/01/02 03:42:58;;;;;;;17.05;9.93;;;10.90;99.90;;;;;;5011337;28;20054;-67
2022/01/02 03:45:24;;;;;;;18.73;10.25;;;10.90;99.90;;;;;;5030636;28;20054;-66
2022/01/02 03:47:50;;;;;;;19.33;10.40;;;10.90;99.90;;;;;;5030377;28;20041;-66
2022/01/02 03:50:16;;;;;;;18.83;10.05;;;10.90;99.90;;;;;;5029621;28;20045;-66
2022/01/02 03:52:42;;;;;;;19.00;10.20;;;10.90;99.90;;;;;;5019972;28;20096;-66
2022/01/02 03:55:09;;;;;;;25.75;10.90;;;10.90;99.90;;;;;;5029229;28;20132;-66
2022/01/02 03:57:35;;;;;;;24.88;11.25;;;10.90;99.90;;;;;;5029939;28;20184;-66
2022/01/02 04:00:04;;;;;;;21.13;10.35;;;10.90;99.90;;;;;;5029163;28;20061;-65
2022/01/02 04:02:29;;;;;;;19.15;10.13;;;10.90;99.90;;;;;;5024140;28;20130;-67
2022/01/02 04:04:55;;;;;;;18.50;9.82;;;10.90;99.90;;;;;;4993642;28;20132;-66
2022/01/02 04:07:21;;;;;;;18.05;10.23;;;10.90;99.90;;;;;;5029010;28;20080;-66
2022/01/02 04:09:48;;;;;;;19.95;10.73;;;10.90;99.90;;;;;;5028838;28;20129;-65
2022/01/02 04:12:13;;;;;;;17.25;10.07;;;10.90;99.90;;;;;;5029290;28;20041;-66
2022/01/02 04:14:39;;;;;;;28.58;10.02;;;10.90;99.90;;;;;;5028822;28;20609;-66
2022/01/02 04:17:05;;;;;;;20.27;9.55;;;10.90;99.90;;;;;;5030402;28;20163;-66
2022/01/02 04:19:30;;;;;;;17.88;9.43;;;10.90;99.90;;;;;;5029560;28;20073;-67
2022/01/02 04:21:56;;;;;;;21.00;9.57;;;10.90;99.90;;;;;;5028016;28;20410;-67
2022/01/02 04:24:22;;;;;;;22.60;10.77;;;11.00;99.90;;;;;;5026514;28;20053;-66
2022/01/02 04:26:47;;;;;;;19.27;10.20;;;11.00;99.90;;;;;;5029203;28;20042;-67
2022/01/02 04:29:13;;;;;;;23.77;10.30;;;11.00;99.90;;;;;;5028651;28;20160;-67
2022/01/02 04:31:39;;;;;;;21.58;9.95;;;11.00;99.90;;;;;;5027726;28;20048;-67
2022/01/02 04:34:05;;;;;;;20.77;10.43;;;11.00;99.90;;;;;;5028833;28;20049;-66
2022/01/02 04:36:30;;;;;;;23.85;10.27;;;10.90;99.90;;;;;;5028176;28;20132;-67
2022/01/02 04:38:56;;;;;;;23.98;10.32;;;10.90;99.90;;;;;;5027710;28;20073;-67
2022/01/02 04:41:22;;;;;;;21.55;9.93;;;11.00;99.90;;;;;;5028629;28;20058;-66
2022/01/02 04:43:48;;;;;;;20.58;9.55;;;11.00;99.90;;;;;;5027428;28;20508;-67
2022/01/02 04:46:14;;;;;;;19.25;10.23;;;11.00;99.90;;;;;;5010511;28;20782;-67
2022/01/02 04:48:39;;;;;;;19.77;10.13;;;11.00;99.90;;;;;;5011016;28;20053;-67
2022/01/02 04:51:05;;;;;;;23.80;9.98;;;11.00;99.90;;;;;;5030033;28;20060;-66
2022/01/02 04:53:31;;;;;;;17.60;9.07;;;11.00;99.90;;;;;;5012084;28;20038;-66
2022/01/02 04:55:57;;;;;;;19.85;9.65;;;11.00;99.90;;;;;;5006803;28;20049;-66
2022/01/02 04:58:23;;;;;;;18.80;9.73;;;11.00;99.90;;;;;;5011655;28;20399;-66
2022/01/02 05:00:48;;;;;;;19.73;9.98;;;11.00;99.90;;;;;;5029073;28;20091;-66
2022/01/02 05:03:14;;;;;;;17.98;9.10;;;11.00;99.90;;;;;;5028271;28;20231;-66
2022/01/02 05:05:40;;;;;;;19.80;9.32;;;11.00;99.90;;;;;;5019544;28;20099;-68
2022/01/02 05:08:06;;;;;;;16.75;8.65;;;10.90;99.90;;;;;;5016188;28;20469;-66
2022/01/02 05:10:31;;;;;;;20.00;10.52;;;11.10;99.90;;;;;;5028585;28;20057;-66
2022/01/02 05:12:57;;;;;;;20.13;10.10;;;11.10;99.90;;;;;;5029305;28;20046;-66
2022/01/02 05:15:23;;;;;;;20.63;9.23;;;11.10;99.90;;;;;;5009003;28;20479;-66
2022/01/02 05:17:48;;;;;;;23.08;9.82;;;11.10;99.90;;;;;;5009586;28;20034;-66
2022/01/02 05:20:14;;;;;;;22.77;10.27;;;11.10;99.90;;;;;;5013960;28;20080;-65
2022/01/02 05:22:40;;;;;;;20.45;10.05;;;11.10;99.90;;;;;;5031475;28;20045;-65
2022/01/02 05:25:06;;;;;;;24.95;9.43;;;11.10;99.90;;;;;;5031914;28;20045;-66
2022/01/02 05:27:32;;;;;;;20.90;8.55;;;11.10;99.90;;;;;;5032365;28;20099;-66
2022/01/02 05:29:58;;;;;;;17.95;8.60;;;11.10;99.90;;;;;;5031657;28;20124;-66
2022/01/02 05:32:23;;;;;;;18.83;8.32;;;11.10;99.90;;;;;;5033017;28;20049;-66
2022/01/02 05:34:49;;;;;;;22.27;9.15;;;10.80;99.90;;;;;;5031606;28;20533;-65
2022/01/02 05:37:15;;;;;;;23.67;8.73;;;11.10;99.90;;;;;;5014968;28;20127;-66
2022/01/02 05:39:40;;;;;;;18.17;8.13;;;11.10;99.90;;;;;;5033123;28;20513;-66
2022/01/02 05:42:08;;;;;;;21.15;8.50;;;11.20;99.90;;;;;;5032611;28;20505;-66
2022/01/02 05:44:34;;;;;;;16.48;7.30;;;11.10;99.90;;;;;;5033104;28;20065;-66
2022/01/02 05:46:59;;;;;;;17.75;7.95;;;11.10;99.90;;;;;;5030418;28;20041;-67
2022/01/02 05:49:25;;;;;;;15.77;7.07;;;11.20;99.90;;;;;;5032769;28;20060;-65
2022/01/02 05:51:51;;;;;;;16.67;7.93;;;11.10;99.90;;;;;;5014558;28;20144;-66
2022/01/02 05:54:17;;;;;;;18.80;7.32;;;11.20;99.90;;;;;;5033019;28;20136;-66
2022/01/02 05:56:43;;;;;;;18.88;7.28;;;11.20;99.90;;;;;;5031761;28;20402;-65
2022/01/02 05:59:09;;;;;;;21.45;7.47;;;11.20;99.90;;;;;;5031801;28;20045;-66
2022/01/02 06:01:34;;;;;;;19.92;6.82;;;11.20;99.90;;;;;;5032627;28;20075;-66
2022/01/02 06:04:00;;;;;;;15.38;6.50;;;11.20;99.90;;;;;;5032061;28;20529;-66
2022/01/02 06:06:26;;;;;;;18.40;6.85;;;11.20;99.90;;;;;;5031464;28;20076;-65
2022/01/02 06:08:52;;;;;;;15.18;7.18;;;11.20;99.90;;;;;;5031062;28;20049;-66
2022/01/02 06:11:18;;;;;;;23.13;7.47;;;11.20;99.90;;;;;;5025951;28;20119;-66
2022/01/02 06:13:44;;;;;;;17.63;6.53;;;11.20;99.90;;;;;;5031239;28;20057;-66
2022/01/02 06:16:13;;;;;;;17.70;7.47;;;11.20;99.90;;;;;;5030062;28;20129;-67
2022/01/02 06:18:39;;;;;;;15.45;6.45;;;11.20;99.90;;;;;;5030607;28;20045;-66
2022/01/02 06:21:05;;;;;;;15.80;6.20;;;11.30;99.90;;;;;;5030944;28;20033;-66
2022/01/02 06:23:31;;;;;;;14.95;4.95;;;11.20;99.90;;;;;;5031017;28;20088;-65
2022/01/02 06:25:57;;;;;;;18.05;6.75;;;11.30;99.90;;;;;;5030610;28;20077;-66
2022/01/02 06:28:23;;;;;;;18.65;6.10;;;11.30;99.90;;;;;;5028277;28;20126;-66
2022/01/02 06:30:48;;;;;;;15.40;5.95;;;11.30;99.90;;;;;;4996048;28;20042;-66
2022/01/02 06:33:14;;;;;;;15.05;5.70;;;11.30;99.90;;;;;;5012918;28;20057;-67
2022/01/02 06:35:40;;;;;;;9.40;5.68;;;11.30;99.90;;;;;;5030742;28;20471;-66
2022/01/02 06:38:19;;;;;;;16.58;6.07;;;11.40;99.90;;;;;;5031466;28;20390;-66
2022/01/02 06:40:45;;;;;;;12.30;5.03;;;11.30;99.90;;;;;;5030366;28;20384;-66
2022/01/02 06:43:13;;;;;;;11.40;5.63;;;11.40;99.90;;;;;;5029627;28;20056;-66
2022/01/02 06:45:39;;;;;;;16.02;5.55;;;11.40;99.90;;;;;;5014587;28;20060;-65
2022/01/02 06:48:05;;;;;;;14.15;5.07;;;11.40;99.90;;;;;;5013929;28;20115;-66
2022/01/02 06:50:32;;;;;;;15.02;5.50;;;11.40;99.90;;;;;;5019207;28;20458;-67
2022/01/02 06:52:57;;;;;;;19.27;5.82;;;11.40;99.90;;;;;;5019736;28;20038;-65
2022/01/02 06:55:23;;;;;;;14.52;5.45;;;11.40;99.90;;;;;;5031769;28;20079;-65
2022/01/02 06:57:50;;;;;;;13.45;3.83;;;11.40;99.90;;;;;;5030661;28;20061;-66
2022/01/02 07:00:15;;;;;;;14.05;5.28;;;11.40;99.90;;;;;;5030480;28;20057;-66
2022/01/02 07:02:41;;;;;;;11.30;4.15;;;11.50;99.90;;;;;;5031230;28;20103;-66
2022/01/02 07:05:08;;;;;;;10.10;4.40;;;11.50;99.90;;;;;;5029527;28;20132;-66
2022/01/02 07:07:39;;;;;;;12.73;4.88;;;11.50;99.90;;;;;;5030332;28;20049;-67
2022/01/02 07:10:05;;;;;;;12.02;4.82;;;11.50;99.90;;;;;;5029889;28;20060;-66
2022/01/02 07:12:31;;;;;;;9.05;4.28;;;11.40;99.90;;;;;;5031430;28;20041;-66
2022/01/02 07:14:57;;;;;;;20.45;4.97;;;11.50;99.90;;;;;;5013558;28;20050;-66
2022/01/02 07:17:22;;;;;;;13.35;4.38;;;11.50;99.90;;;;;;5029441;28;20062;-67
2022/01/02 07:19:48;;;;;;;10.05;3.58;;;11.50;99.90;;;;;;5030081;28;20085;-66
2022/01/02 07:22:14;;;;;;;12.50;4.07;;;11.50;99.90;;;;;;5030178;28;20050;-65
2022/01/02 07:24:39;;;;;;;12.63;3.97;;;11.50;99.90;;;;;;5029841;28;20451;-66
2022/01/02 07:27:05;;;;;;;11.80;3.70;;;11.50;99.90;;;;;;5030648;28;20098;-65
2022/01/02 07:29:31;;;;;;;15.02;4.35;;;11.50;99.90;;;;;;5029794;28;20041;-67
2022/01/02 07:31:57;;;;;;;11.07;4.18;;;11.50;99.90;;;;;;5028078;28;20541;-65
2022/01/02 07:34:23;;;;;;;11.25;3.40;;;11.60;99.90;;;;;;5045525;28;20053;-67
2022/01/02 07:36:48;;;;;;;18.02;4.15;;;11.60;99.90;;;;;;5013522;28;20048;-67
2022/01/02 07:39:15;;;;;;;12.75;3.60;;;11.60;99.90;;;;;;5030437;28;20107;-67
2022/01/02 07:41:41;;;;;;;8.25;3.72;;;11.70;99.90;;;;;;5025994;28;20108;-66
2022/01/02 07:44:08;;;;;;;11.55;3.75;;;11.70;99.90;;;;;;5027012;28;20056;-68
2022/01/02 07:46:34;;;;;;;8.73;2.78;;;11.70;99.90;;;;;;5029986;28;20058;-67
2022/01/02 07:49:00;;;;;;;10.32;3.70;;;11.70;99.90;;;;;;5031046;28;20111;-66
2022/01/02 07:51:25;;;;;;;9.02;3.20;;;11.70;99.90;;;;;;5029271;28;20060;-66
2022/01/02 07:53:51;;;;;;;10.23;3.55;;;11.80;99.90;;;;;;5021500;28;20474;-67
2022/01/02 07:56:17;;;;;;;10.05;3.65;;;11.70;99.90;;;;;;5025247;28;20180;-66
2022/01/02 07:58:43;;;;;;;8.60;3.50;;;11.70;99.90;;;;;;5030814;28;20049;-67
2022/01/02 08:01:09;;;;;;;12.15;4.43;;;11.80;99.90;;;;;;5030247;28;20112;-67
2022/01/02 08:03:36;;;;;;;12.95;3.90;;;11.80;99.90;;;;;;5043845;28;20547;-67
2022/01/02 08:06:02;;;;;;;11.80;4.15;;;11.70;99.90;;;;;;5030422;28;20160;-68
2022/01/02 08:08:28;;;;;;;10.85;4.05;;;11.70;99.90;;;;;;5029050;28;20072;-68
2022/01/02 08:10:54;;;;;;;11.32;4.53;;;11.70;99.90;;;;;;5030584;28;20046;-67
2022/01/02 08:13:19;;;;;;;10.52;4.18;;;11.70;99.90;;;;;;5027731;28;20471;-67
2022/01/02 08:15:48;;;;;;;12.02;4.13;;;11.60;99.90;;;;;;5029885;28;20506;-67
2022/01/02 08:18:13;;;;;;;13.40;4.18;;;11.60;99.90;;;;;;5029740;28;20132;-67
2022/01/02 08:20:40;;;;;;;11.50;4.40;;;11.60;99.90;;;;;;5030395;28;20567;-66
2022/01/02 08:23:06;;;;;;;8.70;4.50;;;11.60;99.90;;;;;;5030163;28;20049;-68
2022/01/02 08:25:32;;;;;;;11.00;3.83;;;11.60;99.90;;;;;;5029143;28;20100;-68
2022/01/02 08:27:58;;;;;;;11.98;4.90;;;11.50;99.90;;;;;;5029210;28;20053;-68
2022/01/02 08:30:24;;;;;;;12.82;4.53;;;11.50;99.90;;;;;;5027936;28;20136;-67
2022/01/02 08:32:50;;;;;;;14.45;5.32;;;11.50;99.90;;;;;;5029941;28;20040;-69
2022/01/02 08:35:16;;;;;;;11.52;5.18;;;11.50;99.90;;;;;;5017583;28;20116;-68
2022/01/02 08:37:41;;;;;;;12.13;5.00;;;11.50;99.90;;;;;;5009457;28;20061;-68
2022/01/02 08:40:08;;;;;;;8.95;4.53;;;11.50;99.90;;;;;;5010663;28;20078;-67
2022/01/02 08:42:34;;;;;;;8.73;4.57;;;11.40;99.90;;;;;;5005396;28;20053;-67
2022/01/02 08:45:00;;;;;;;11.07;4.65;;;11.40;99.90;;;;;;5028153;28;20100;-67
2022/01/02 08:47:25;;;;;;;12.23;4.90;;;11.40;99.90;;;;;;5028606;28;20064;-67
2022/01/02 08:49:51;;;;;;;13.18;5.25;;;11.40;99.90;;;;;;5028765;28;20049;-67
2022/01/02 08:52:18;;;;;;;9.23;5.15;;;11.40;99.90;;;;;;5029486;28;20060;-67
2022/01/02 08:54:44;;;;;;;8.30;4.60;;;11.40;99.90;;;;;;5027486;28;20046;-68
2022/01/02 08:57:10;;;;;;;7.95;4.30;;;11.40;99.90;;;;;;5012931;28;20132;-67
2022/01/02 08:59:36;;;;;;;9.40;4.28;;;11.40;99.90;;;;;;5012380;28;20050;-67
2022/01/02 09:02:02;;;;;;;8.63;4.63;;;11.40;99.90;;;;;;5013387;28;20045;-66
2022/01/02 09:04:28;;;;;;;11.05;4.40;;;11.40;99.90;;;;;;5024902;28;20046;-65
2022/01/02 09:06:54;;;;;;;12.65;4.90;;;11.40;99.90;;;;;;5024863;28;20037;-66
2022/01/02 09:09:19;;;;;;;12.05;4.55;;;11.40;99.90;;;;;;5015635;28;20103;-66
2022/01/02 09:11:46;;;;;;;9.40;4.22;;;11.40;99.90;;;;;;5032449;28;20042;-66
2022/01/02 09:14:12;;;;;;;11.20;4.63;;;11.40;99.90;;;;;;5015744;28;20049;-67
2022/01/02 09:16:39;;;;;;;8.57;4.20;;;11.40;99.90;;;;;;5022345;28;20050;-66
2022/01/02 09:19:06;;;;;;;6.95;3.70;;;11.40;99.90;;;;;;5016772;28;20045;-66
2022/01/02 09:21:32;;;;;;;7.63;4.20;;;11.30;99.90;;;;;;5033083;28;20049;-66
2022/01/02 09:23:57;;;;;;;9.95;4.85;;;11.30;99.90;;;;;;5033203;28;20505;-66
2022/01/02 09:26:23;;;;;;;7.18;4.63;;;11.30;99.90;;;;;;5028730;28;20045;-64
2022/01/02 09:28:49;;;;;;;8.85;5.05;;;11.30;99.90;;;;;;5013594;28;20064;-66
2022/01/02 09:31:14;;;;;;;9.73;5.20;;;11.20;99.90;;;;;;5015625;28;20056;-65
2022/01/02 09:33:40;;;;;;;7.72;5.00;;;11.30;99.90;;;;;;5029122;28;20491;-66
2022/01/02 09:36:06;;;;;;;9.50;6.07;;;11.20;99.90;;;;;;5030114;28;20509;-66
2022/01/02 09:38:32;;;;;;;9.95;5.55;;;11.30;99.90;;;;;;5032822;28;20046;-68
2022/01/02 09:40:59;;;;;;;13.13;6.20;;;11.20;99.90;;;;;;5033318;28;20041;-66
2022/01/02 09:43:26;;;;;;;11.73;5.32;;;11.20;99.90;;;;;;5032179;28;20049;-67
2022/01/02 09:45:52;;;;;;;10.18;4.95;;;11.20;99.90;;;;;;5032759;28;20052;-66
2022/01/02 09:48:18;;;;;;;8.90;5.20;;;11.20;99.90;;;;;;5033362;28;20049;-68
2022/01/02 09:50:47;;;;;;;10.18;5.40;;;11.20;99.90;;;;;;5015329;28;20060;-67
2022/01/02 09:53:13;;;;;;;14.48;5.93;;;11.20;99.90;;;;;;5033025;28;20045;-66
2022/01/02 09:55:39;;;;;;;9.43;4.38;;;11.20;99.90;;;;;;5031240;28;20889;-67
2022/01/02 09:58:11;;;;;;;11.90;5.93;;;11.20;99.90;;;;;;5032426;28;20041;-66
2022/01/02 10:00:37;;;;;;;7.95;5.63;;;11.20;99.90;;;;;;5032602;28;20055;-66
2022/01/02 10:03:05;;;;;;;11.27;6.70;;;11.20;99.90;;;;;;5048267;28;20048;-67
2022/01/02 10:05:52;;;;;;;10.60;6.28;;;11.20;99.90;;;;;;5030660;28;20057;-67
2022/01/02 10:08:22;;;;;;;12.75;6.32;;;11.20;99.90;;;;;;5031162;28;20049;-67
2022/01/02 10:10:56;;;;;;;9.48;5.47;;;11.20;99.90;;;;;;5030335;28;20072;-67
2022/01/02 10:13:39;;;;;;;16.25;6.90;;;11.20;99.90;;;;;;5030588;28;20037;-67
2022/01/02 10:16:23;;;;;;;11.82;6.75;;;11.20;99.90;;;;;;5032686;28;20120;-67
2022/01/02 10:18:52;;;;;;;12.23;7.03;;;11.20;99.90;;;;;;5030780;28;20077;-67
2022/01/02 10:21:38;;;;;;;12.03;6.47;;;11.20;99.90;;;;;;5030972;28;20559;-67
2022/01/02 10:24:21;;;;;;;11.15;6.00;;;11.20;99.90;;;;;;5029073;28;20065;-67
2022/01/02 10:27:07;;;;;;;15.10;6.70;;;11.20;99.90;;;;;;5031633;28;20114;-66
2022/01/02 10:29:43;;;;;;;11.68;6.60;;;11.10;99.90;;;;;;5025929;28;20041;-66
2022/01/02 10:32:28;;;;;;;11.00;5.68;;;11.10;99.90;;;;;;5031269;28;20053;-66
2022/01/02 10:35:15;;;;;;;10.82;6.53;;;11.20;99.90;;;;;;5026348;28;20593;-65
2022/01/02 10:37:47;;;;;;;14.32;7.03;;;11.20;99.90;;;;;;5011748;28;20049;-66
2022/01/02 10:40:32;;;;;;;11.40;6.18;;;11.10;99.90;;;;;;5028470;28;20053;-65
2022/01/02 10:43:01;;;;;;;13.75;6.53;;;11.20;99.90;;;;;;5031708;28;20064;-67
2022/01/02 10:45:31;;;;;;;12.30;6.57;;;11.20;99.90;;;;;;5045328;28;20059;-67
2022/01/02 10:47:57;;;;;;;16.95;7.57;;;11.20;99.90;;;;;;5031422;28;20395;-66
2022/01/02 10:50:23;;;;;;;13.95;6.78;;;11.20;99.90;;;;;;5030531;28;20045;-66
2022/01/02 10:52:49;;;;;;;15.20;6.72;;;11.20;99.90;;;;;;5031223;28;20033;-66
2022/01/02 10:55:21;;;;;;;16.08;7.00;;;11.30;99.90;;;;;;5010655;28;20052;-66
2022/01/02 10:57:49;;;;;;;16.10;6.50;;;11.30;99.90;;;;;;4994070;28;20156;-66
2022/01/02 11:00:20;;;;;;;17.60;7.15;;;11.30;99.90;;;;;;5017427;28;20049;-65
2022/01/02 11:02:47;;;;;;;14.10;5.70;;;11.30;99.90;;;;;;5046243;28;20498;-66
2022/01/02 11:05:19;;;;;;;11.93;6.03;;;11.30;99.90;;;;;;5031448;28;20101;-66
2022/01/02 11:07:48;;;;;;;13.75;5.82;;;11.40;99.90;;;;;;5013299;28;20053;-65
2022/01/02 11:10:19;;;;;;;15.55;5.45;;;11.40;99.90;;;;;;5030449;28;20128;-66
2022/01/02 11:12:45;;;;;;;14.68;5.40;;;11.40;99.90;;;;;;5029980;28;20099;-65
2022/01/02 11:15:17;;;;;;;14.82;5.53;;;11.40;99.90;;;;;;5046129;28;20050;-67
2022/01/02 11:17:44;;;;;;;8.98;4.93;;;11.50;99.90;;;;;;5027467;28;20050;-66
2022/01/02 11:20:20;;;;;;;13.20;5.30;;;11.40;99.90;;;;;;5025009;28;20045;-66
2022/01/02 11:23:04;;;;;;;14.68;4.60;;;11.50;99.90;;;;;;5027772;28;20045;-66
2022/01/02 11:25:36;;;;;;;13.75;4.82;;;11.50;99.90;;;;;;5011024;28;20091;-67
2022/01/02 11:28:26;;;;;;;18.13;5.47;;;11.50;99.90;;;;;;5026843;28;20053;-68
2022/01/02 11:30:55;;;;;;;13.95;4.80;;;11.50;99.90;;;;;;5010132;28;20410;-67
2022/01/02 11:33:33;;;;;;;11.25;4.88;;;11.60;99.90;;;;;;5027543;28;20045;-67
2022/01/02 11:36:18;;;;;;;16.23;4.88;;;11.60;99.90;;;;;;5027335;28;20049;-68
2022/01/02 11:38:44;;;;;;;14.50;4.63;;;11.60;99.90;;;;;;5027307;28;20077;-69
2022/01/02 11:41:14;;;;;;;16.67;4.90;;;11.60;99.90;;;;;;5007520;28;20163;-68
2022/01/02 11:43:46;;;;;;;10.05;4.63;;;11.60;99.90;;;;;;5012567;28;20421;-68
2022/01/02 11:46:31;;;;;;;10.50;4.18;;;11.60;99.90;;;;;;5026479;28;20499;-68
2022/01/02 11:49:13;;;;;;;12.20;3.95;;;11.60;99.90;;;;;;5016374;28;20048;-69
2022/01/02 11:51:48;;;;;;;12.02;3.80;;;11.60;99.90;;;;;;5015339;28;20065;-68
2022/01/02 11:54:29;;;;;;;18.27;4.95;;;11.60;99.90;;;;;;5028857;28;20521;-70
2022/01/02 11:57:03;;;;;;;19.65;5.32;;;11.50;99.90;;;;;;5002019;28;20042;-69
2022/01/02 11:59:38;;;;;;;12.82;4.05;;;11.50;99.90;;;;;;5010863;28;20104;-68
2022/01/02 12:02:23;;;;;;;16.38;4.53;;;11.50;99.90;;;;;;5026094;28;20045;-68
2022/01/02 12:05:02;;;;;;;;;;;11.50;99.90;;;;;;5030599;28;20046;-69
2022/01/02 12:07:34;;;;;;;12.05;3.95;;;11.50;99.90;;;;;;5011205;28;19921;-68
2022/01/02 12:10:34;;;;;;;15.25;4.35;;;11.50;99.90;;;;;;5029537;28;20134;-67
2022/01/02 12:13:00;;;;;;;12.88;3.75;;;11.50;99.90;;;;;;5029528;28;20037;-68
2022/01/02 12:15:32;;;;;;;12.07;4.00;;;11.50;99.90;;;;;;5028791;28;20041;-67
2022/01/02 12:18:19;;;;;;;11.43;3.92;;;11.50;99.90;;;;;;5019676;28;20049;-68
2022/01/02 12:20:51;;;;;;;18.27;4.10;;;11.50;99.90;;;;;;5027405;28;20060;-68
2022/01/02 12:23:35;;;;;;;10.98;3.83;;;11.40;99.90;;;;;;5030616;28;20158;-68
2022/01/02 12:26:05;;;;;;;8.68;3.65;;;11.40;99.90;;;;;;5029793;28;20053;-68
2022/01/02 12:28:41;;;;;;;18.83;5.00;;;11.40;99.90;;;;;;5028735;28;20136;-68
2022/01/02 12:31:09;;;;;;;17.10;4.00;;;11.40;99.90;;;;;;5023377;28;20042;-69
2022/01/02 12:33:36;;;;;;;14.20;3.95;;;11.40;99.90;;;;;;5009383;28;20141;-68
2022/01/02 12:36:12;;;;;;;11.75;3.67;;;11.40;99.90;;;;;;5009797;28;20116;-70
2022/01/02 12:38:49;;;;;;;18.02;3.88;;;11.40;99.90;;;;;;5016301;28;20137;-68
2022/01/02 12:41:17;;;;;;;13.52;3.55;;;11.40;99.90;;;;;;5026983;28;20048;-68
2022/01/02 12:44:00;;;;;;;13.40;3.60;;;11.40;99.90;;;;;;5029091;28;20512;-69
2022/01/02 12:46:48;;;;;;;14.05;4.47;;;11.40;99.90;;;;;;5028659;28;20060;-69
2022/01/02 12:49:25;;;;;;;15.90;3.75;;;11.40;99.90;;;;;;5029561;28;20068;-70
2022/01/02 12:52:12;;;;;;;11.50;3.63;;;11.40;99.90;;;;;;5028371;28;20057;-69